createdAt,value
2023-04-18T00:00:26.867Z,11.10
2023-04-18T00:02:56.300Z,11.10
2023-04-18T00:05:24.604Z,11.10
2023-04-18T00:07:53.293Z,11.00
2023-04-18T00:10:21.216Z,11.00
2023-04-18T00:12:49.428Z,11.00
2023-04-18T00:15:17.602Z,11.00
2023-04-18T00:17:45.837Z,11.00
2023-04-18T00:20:13.924Z,11.00
2023-04-18T00:22:46.966Z,11.00
2023-04-18T00:25:15.750Z,11.00
2023-04-18T00:27:43.992Z,10.90
2023-04-18T00:30:12.532Z,10.90
2023-04-18T00:32:40.436Z,10.90
2023-04-18T00:35:09.184Z,10.80
2023-04-18T00:37:37.888Z,10.80
2023-04-18T00:40:07.003Z,10.80
2023-04-18T00:42:34.974Z,10.80
2023-04-18T00:45:03.239Z,10.70
2023-04-18T00:47:31.394Z,10.70
2023-04-18T00:50:00.349Z,10.70
2023-04-18T00:52:28.894Z,10.60
2023-04-18T00:54:57.172Z,10.60
2023-04-18T00:57:25.716Z,10.60
2023-04-18T00:59:53.844Z,10.50
2023-04-18T01:02:22.553Z,10.50
2023-04-18T01:04:51.273Z,10.50
2023-04-18T01:07:19.263Z,10.40
2023-04-18T01:09:48.395Z,10.40
2023-04-18T01:12:16.459Z,10.40
2023-04-18T01:14:44.725Z,10.50
2023-04-18T01:17:13.687Z,10.40
2023-04-18T01:19:42.056Z,10.40
2023-04-18T01:22:14.956Z,10.40
2023-04-18T01:24:43.185Z,10.40
2023-04-18T01:27:14.522Z,10.50
2023-04-18T01:29:42.866Z,10.40
2023-04-18T01:32:11.033Z,10.40
2023-04-18T01:34:39.126Z,10.40
2023-04-18T01:37:07.410Z,10.40
2023-04-18T01:39:35.764Z,10.40
2023-04-18T01:42:03.757Z,10.40
2023-04-18T01:44:31.983Z,10.40
2023-04-18T01:47:00.066Z,10.40
2023-04-18T01:49:29.162Z,10.40
2023-04-18T01:51:57.342Z,10.50
2023-04-18T01:54:25.399Z,10.50
2023-04-18T01:56:53.687Z,10.50
2023-04-18T01:59:21.643Z,10.50
2023-04-18T02:01:49.805Z,10.50
2023-04-18T02:04:18.752Z,10.50
2023-04-18T02:06:47.907Z,10.50
2023-04-18T02:09:16.584Z,10.50
2023-04-18T02:11:44.825Z,10.50
2023-04-18T02:14:13.135Z,10.50
2023-04-18T02:16:41.632Z,10.50
2023-04-18T02:19:09.757Z,10.50
2023-04-18T02:21:38.084Z,10.50
2023-04-18T02:24:06.061Z,10.40
2023-04-18T02:26:34.272Z,10.40
2023-04-18T02:29:02.257Z,10.40
2023-04-18T02:31:30.637Z,10.40
2023-04-18T02:33:58.768Z,10.40
2023-04-18T02:36:28.602Z,10.40
2023-04-18T02:38:56.589Z,10.40
2023-04-18T02:41:24.910Z,10.50
2023-04-18T02:43:55.776Z,10.40
2023-04-18T02:46:24.939Z,10.50
2023-04-18T02:48:53.209Z,10.40
2023-04-18T02:51:25.467Z,10.40
2023-04-18T02:53:55.823Z,10.40
2023-04-18T02:56:25.734Z,10.40
2023-04-18T02:59:23.383Z,10.40
2023-04-18T03:01:57.859Z,10.40
2023-04-18T03:04:26.166Z,10.40
2023-04-18T03:07:02.987Z,10.40
2023-04-18T03:09:35.805Z,10.40
2023-04-18T03:12:10.028Z,10.40
2023-04-18T03:14:38.482Z,10.30
2023-04-18T03:17:07.083Z,10.30
2023-04-18T03:19:41.058Z,10.30
2023-04-18T03:22:14.681Z,10.30
2023-04-18T03:24:53.032Z,10.20
2023-04-18T03:27:24.010Z,10.20
2023-04-18T03:29:52.377Z,10.10
2023-04-18T03:32:20.414Z,10.10
2023-04-18T03:34:49.229Z,10.10
2023-04-18T03:37:17.585Z,10.10
2023-04-18T03:39:51.476Z,10.10
2023-04-18T03:42:20.238Z,10.00
2023-04-18T03:44:48.145Z,10.00
2023-04-18T03:47:17.248Z,10.00
2023-04-18T03:49:49.309Z,10.00
2023-04-18T03:52:20.445Z,10.00
2023-04-18T03:54:48.597Z,10.00
2023-04-18T03:57:18.572Z,10.00
2023-04-18T03:59:47.913Z,10.00
2023-04-18T04:02:16.319Z,10.00
2023-04-18T04:04:44.740Z,10.00
2023-04-18T04:07:13.213Z,10.00
2023-04-18T04:09:41.342Z,10.00
2023-04-18T04:12:09.528Z,10.00
2023-04-18T04:14:38.066Z,10.00
2023-04-18T04:17:06.587Z,10.00
2023-04-18T04:19:35.038Z,10.10
2023-04-18T04:22:11.084Z,10.10
2023-04-18T04:24:39.999Z,10.10
2023-04-18T04:27:08.534Z,10.10
2023-04-18T04:29:39.584Z,10.10
2023-04-18T04:32:08.869Z,10.10
2023-04-18T04:34:41.838Z,10.10
2023-04-18T04:37:15.477Z,10.10
2023-04-18T04:39:57.476Z,10.10
2023-04-18T04:42:47.056Z,10.20
2023-04-18T04:45:23.748Z,10.20
2023-04-18T04:47:53.323Z,10.30
2023-04-18T04:50:22.286Z,10.30
2023-04-18T04:52:50.531Z,10.30
2023-04-18T04:55:19.335Z,10.40
2023-04-18T04:57:48.207Z,10.40
2023-04-18T05:00:42.565Z,10.50
2023-04-18T05:03:11.988Z,10.50
2023-04-18T05:05:40.406Z,10.60
2023-04-18T05:08:08.718Z,10.70
2023-04-18T05:10:39.558Z,10.70
2023-04-18T05:13:07.590Z,10.80
2023-04-18T05:15:39.957Z,10.90
2023-04-18T05:18:08.143Z,11.00
2023-04-18T05:20:36.368Z,11.10
2023-04-18T05:23:04.688Z,11.20
2023-04-18T05:25:33.957Z,11.30
2023-04-18T05:28:04.999Z,11.30
2023-04-18T05:30:32.992Z,11.50
2023-04-18T05:33:01.370Z,11.60
2023-04-18T05:35:30.221Z,11.60
2023-04-18T05:37:59.278Z,11.80
2023-04-18T05:40:30.718Z,11.90
2023-04-18T05:42:58.975Z,12.00
2023-04-18T05:45:27.271Z,12.00
2023-04-18T05:47:55.721Z,12.20
2023-04-18T05:50:24.192Z,12.20
2023-04-18T05:52:52.896Z,12.40
2023-04-18T05:55:21.000Z,12.50
2023-04-18T05:57:49.294Z,12.50
2023-04-18T06:00:18.365Z,12.60
2023-04-18T06:02:47.040Z,12.80
2023-04-18T06:05:15.288Z,12.80
2023-04-18T06:07:43.665Z,13.00
2023-04-18T06:10:13.810Z,13.10
2023-04-18T06:12:42.730Z,13.20
2023-04-18T06:15:11.499Z,13.30
2023-04-18T06:17:40.792Z,13.40
2023-04-18T06:20:10.102Z,13.50
2023-04-18T06:22:41.064Z,13.60
2023-04-18T06:25:10.638Z,13.70
2023-04-18T06:27:39.271Z,13.80
2023-04-18T06:30:11.038Z,13.90
2023-04-18T06:32:39.192Z,14.00
2023-04-18T06:35:07.761Z,14.10
2023-04-18T06:37:36.142Z,14.10
2023-04-18T06:40:04.550Z,14.10
2023-04-18T06:42:32.762Z,14.10
2023-04-18T06:45:01.260Z,14.20
2023-04-18T06:47:29.983Z,14.30
2023-04-18T06:49:58.325Z,14.30
2023-04-18T06:52:26.787Z,14.40
2023-04-18T06:54:54.728Z,14.50
2023-04-18T06:57:22.956Z,14.60
2023-04-18T06:59:51.106Z,14.70
2023-04-18T07:02:19.422Z,14.70
2023-04-18T07:04:47.789Z,15.00
2023-04-18T07:07:16.414Z,15.10
2023-04-18T07:09:44.356Z,15.10
2023-04-18T07:12:12.768Z,15.30
2023-04-18T07:14:41.149Z,15.40
2023-04-18T07:17:09.674Z,15.50
2023-04-18T07:19:37.720Z,15.60
2023-04-18T07:22:05.963Z,15.50
2023-04-18T07:24:34.388Z,15.50
2023-04-18T07:27:03.693Z,15.50
2023-04-18T07:29:32.244Z,15.50
2023-04-18T07:32:00.368Z,15.40
2023-04-18T07:34:30.261Z,15.50
2023-04-18T07:37:01.683Z,15.60
2023-04-18T07:39:29.883Z,15.80
2023-04-18T07:41:58.268Z,15.90
2023-04-18T07:44:26.451Z,16.00
2023-04-18T07:46:54.560Z,16.00
2023-04-18T07:49:24.218Z,16.10
2023-04-18T07:51:52.394Z,16.10
2023-04-18T07:54:20.731Z,16.10
2023-04-18T07:56:49.064Z,16.10
2023-04-18T07:59:17.295Z,16.20
2023-04-18T08:01:45.668Z,16.30
2023-04-18T08:04:15.145Z,16.30
2023-04-18T08:06:43.204Z,16.30
2023-04-18T08:09:12.412Z,16.10
2023-04-18T08:11:41.966Z,16.20
2023-04-18T08:14:10.104Z,16.30
2023-04-18T08:16:38.411Z,16.30
2023-04-18T08:19:06.810Z,16.40
2023-04-18T08:21:34.868Z,16.60
2023-04-18T08:24:03.112Z,16.70
2023-04-18T08:26:31.559Z,16.80
2023-04-18T08:28:59.717Z,16.70
2023-04-18T08:31:28.033Z,16.80
2023-04-18T08:33:56.250Z,16.70
2023-04-18T08:36:25.292Z,16.70
2023-04-18T08:38:53.418Z,16.70
2023-04-18T08:41:25.788Z,16.90
2023-04-18T08:43:55.250Z,17.10
2023-04-18T08:46:25.445Z,17.10
2023-04-18T08:48:54.220Z,17.20
2023-04-18T08:51:23.173Z,17.30
2023-04-18T08:53:51.652Z,17.40
2023-04-18T08:56:23.025Z,17.50
2023-04-18T08:58:51.288Z,17.40
2023-04-18T09:01:19.306Z,17.50
2023-04-18T09:03:47.917Z,17.30
2023-04-18T09:06:19.529Z,17.50
2023-04-18T09:08:59.600Z,17.60
2023-04-18T09:11:30.498Z,17.80
2023-04-18T09:14:02.900Z,18.20
2023-04-18T09:16:50.875Z,18.10
2023-04-18T09:19:19.261Z,18.20
2023-04-18T09:21:49.183Z,18.20
2023-04-18T09:24:26.836Z,18.40
2023-04-18T09:27:00.299Z,18.70
2023-04-18T09:29:58.088Z,19.00
2023-04-18T09:32:29.780Z,18.60
2023-04-18T09:35:04.965Z,18.60
2023-04-18T09:37:33.733Z,18.70
2023-04-18T09:40:01.767Z,19.20
2023-04-18T09:42:37.775Z,19.50
2023-04-18T09:45:08.216Z,19.40
2023-04-18T09:47:37.870Z,19.30
2023-04-18T09:50:08.627Z,19.60
2023-04-18T09:52:42.448Z,19.70
2023-04-18T09:55:14.300Z,19.90
2023-04-18T09:57:48.907Z,19.90
2023-04-18T10:00:25.661Z,19.80
2023-04-18T10:03:05.668Z,19.60
2023-04-18T10:05:36.638Z,19.70
2023-04-18T10:08:08.929Z,19.80
2023-04-18T10:10:38.660Z,20.00
2023-04-18T10:13:11.556Z,20.00
2023-04-18T10:15:41.756Z,19.90
2023-04-18T10:18:17.090Z,20.10
2023-04-18T10:20:47.907Z,20.40
2023-04-18T10:23:54.795Z,20.80
2023-04-18T10:26:50.768Z,21.40
2023-04-18T10:29:25.233Z,21.70
2023-04-18T10:31:53.946Z,21.90
2023-04-18T10:34:22.383Z,22.20
2023-04-18T10:37:06.879Z,22.60
2023-04-18T10:40:06.465Z,23.20
2023-04-18T10:42:52.841Z,23.50
2023-04-18T10:45:22.707Z,24.00
2023-04-18T10:47:51.473Z,24.10
2023-04-18T10:50:19.975Z,24.70
2023-04-18T10:52:48.222Z,25.20
2023-04-18T10:55:26.743Z,25.70
2023-04-18T10:57:56.964Z,25.90
2023-04-18T11:00:26.455Z,25.60
2023-04-18T11:03:00.805Z,26.00
2023-04-18T11:05:33.006Z,26.00
2023-04-18T11:08:01.324Z,26.00
2023-04-18T11:10:29.964Z,26.00
2023-04-18T11:13:05.160Z,26.10
2023-04-18T11:15:37.181Z,26.40
2023-04-18T11:18:05.990Z,26.00
2023-04-18T11:20:46.552Z,26.20
2023-04-18T11:23:25.333Z,26.30
2023-04-18T11:25:57.118Z,26.90
2023-04-18T11:28:27.460Z,27.10
2023-04-18T11:31:00.709Z,26.60
2023-04-18T11:33:30.305Z,26.90
2023-04-18T11:36:01.997Z,27.10
2023-04-18T11:38:34.028Z,27.30
2023-04-18T11:41:03.739Z,27.60
2023-04-18T11:43:31.776Z,27.60
2023-04-18T11:46:01.162Z,27.80
2023-04-18T11:48:39.707Z,27.80
2023-04-18T11:51:29.642Z,27.80
2023-04-18T11:53:58.130Z,28.20
2023-04-18T11:56:26.283Z,28.20
2023-04-18T11:58:54.773Z,28.60
2023-04-18T12:01:25.718Z,29.10
2023-04-18T12:04:07.298Z,29.20
2023-04-18T12:06:53.799Z,29.40
2023-04-18T12:09:25.147Z,29.20
2023-04-18T12:12:01.525Z,29.40
2023-04-18T12:14:31.309Z,29.80
2023-04-18T12:16:59.559Z,29.40
2023-04-18T12:19:28.631Z,28.10
2023-04-18T12:21:58.198Z,26.90
2023-04-18T12:24:26.810Z,25.90
2023-04-18T12:26:55.646Z,25.10
2023-04-18T12:29:24.534Z,24.30
2023-04-18T12:31:53.285Z,24.40
2023-04-18T12:34:21.503Z,24.40
2023-04-18T12:36:49.979Z,24.20
2023-04-18T12:39:18.026Z,23.20
2023-04-18T12:41:47.660Z,22.50
2023-04-18T12:44:18.098Z,21.80
2023-04-18T12:46:46.173Z,21.10
2023-04-18T12:49:14.482Z,20.40
2023-04-18T12:51:44.182Z,19.90
2023-04-18T12:54:13.005Z,19.20
2023-04-18T12:56:41.086Z,18.90
2023-04-18T12:59:09.490Z,18.60
2023-04-18T13:01:37.666Z,18.30
2023-04-18T13:04:12.219Z,18.20
2023-04-18T13:06:43.075Z,18.00
2023-04-18T13:09:11.605Z,17.90
2023-04-18T13:11:39.644Z,17.90
2023-04-18T13:14:08.027Z,17.80
2023-04-18T13:16:36.153Z,17.70
2023-04-18T13:19:04.417Z,17.60
2023-04-18T13:21:32.611Z,17.50
2023-04-18T13:24:01.427Z,17.50
2023-04-18T13:26:29.589Z,17.40
2023-04-18T13:28:57.760Z,17.40
2023-04-18T13:31:25.899Z,17.50
2023-04-18T13:33:53.910Z,17.70
2023-04-18T13:36:21.891Z,17.90
2023-04-18T13:38:50.964Z,18.00
2023-04-18T13:41:18.856Z,18.40
2023-04-18T13:43:47.156Z,18.60
2023-04-18T13:46:15.170Z,18.60
2023-04-18T13:48:43.266Z,18.40
2023-04-18T13:51:11.554Z,18.30
2023-04-18T13:53:39.758Z,18.10
2023-04-18T13:56:08.010Z,17.90
2023-04-18T13:58:36.360Z,17.70
2023-04-18T14:01:04.461Z,17.60
2023-04-18T14:03:33.665Z,17.40
2023-04-18T14:06:03.522Z,17.30
2023-04-18T14:08:31.504Z,17.10
2023-04-18T14:10:59.482Z,17.00
2023-04-18T14:13:27.623Z,16.90
2023-04-18T14:15:55.749Z,16.80
2023-04-18T14:18:25.058Z,16.80
2023-04-18T14:20:53.735Z,16.70
2023-04-18T14:23:22.961Z,16.60
2023-04-18T14:25:51.323Z,16.50
2023-04-18T14:28:22.067Z,16.50
2023-04-18T14:30:50.162Z,16.40
2023-04-18T14:33:21.220Z,16.30
2023-04-18T14:35:49.353Z,16.30
2023-04-18T14:38:17.177Z,16.20
2023-04-18T14:40:45.416Z,16.20
2023-04-18T14:43:13.446Z,16.20
2023-04-18T14:45:41.674Z,16.10
2023-04-18T14:48:10.375Z,16.10
2023-04-18T14:50:39.280Z,16.20
2023-04-18T14:53:07.884Z,16.20
2023-04-18T14:55:36.826Z,16.30
2023-04-18T14:58:05.028Z,16.50
2023-04-18T15:00:33.551Z,16.60
2023-04-18T15:03:01.804Z,16.80
2023-04-18T15:05:30.245Z,17.00
2023-04-18T15:07:58.452Z,17.10
2023-04-18T15:10:26.621Z,17.20
2023-04-18T15:12:54.677Z,17.20
2023-04-18T15:15:23.149Z,17.10
2023-04-18T15:17:51.077Z,17.10
2023-04-18T15:20:20.385Z,17.10
2023-04-18T15:22:49.439Z,17.10
2023-04-18T15:25:18.135Z,17.10
2023-04-18T15:27:46.365Z,17.00
2023-04-18T15:30:14.655Z,17.00
2023-04-18T15:32:42.815Z,17.00
2023-04-18T15:35:13.835Z,17.00
2023-04-18T15:37:42.040Z,17.10
2023-04-18T15:40:11.867Z,17.20
2023-04-18T15:42:40.495Z,17.20
2023-04-18T15:45:08.765Z,17.30
2023-04-18T15:47:36.786Z,17.40
2023-04-18T15:50:05.555Z,17.50
2023-04-18T15:52:33.978Z,17.70
2023-04-18T15:55:01.928Z,17.70
2023-04-18T15:57:30.500Z,17.80
2023-04-18T15:59:59.850Z,17.90
2023-04-18T16:02:28.027Z,17.90
2023-04-18T16:04:56.313Z,18.00
2023-04-18T16:07:24.462Z,17.90
2023-04-18T16:09:52.424Z,17.70
2023-04-18T16:12:20.568Z,17.60
2023-04-18T16:14:48.475Z,17.50
2023-04-18T16:17:16.533Z,17.30
2023-04-18T16:19:47.538Z,17.20
2023-04-18T16:22:15.917Z,17.00
2023-04-18T16:24:43.841Z,16.90
2023-04-18T16:27:12.431Z,16.90
2023-04-18T16:29:45.717Z,16.80
2023-04-18T16:32:18.078Z,16.80
2023-04-18T16:34:46.507Z,16.60
2023-04-18T16:37:14.549Z,16.40
2023-04-18T16:39:42.952Z,16.30
2023-04-18T16:44:40.030Z,16.10
2023-04-18T16:47:08.706Z,16.10
2023-04-18T16:49:39.446Z,15.80
2023-04-18T16:52:07.950Z,15.70
2023-04-18T16:54:35.928Z,15.70
2023-04-18T16:57:05.098Z,15.70
2023-04-18T16:59:33.327Z,15.70
2023-04-18T17:02:01.762Z,15.70
2023-04-18T17:04:29.829Z,15.70
2023-04-18T17:06:58.663Z,15.70
2023-04-18T17:09:26.842Z,15.70
2023-04-18T17:11:54.832Z,15.70
2023-04-18T17:14:22.826Z,15.70
2023-04-18T17:16:53.311Z,15.70
2023-04-18T17:19:22.194Z,15.70
2023-04-18T17:21:51.669Z,15.60
2023-04-18T17:24:20.123Z,15.60
2023-04-18T17:26:48.038Z,15.60
2023-04-18T17:29:16.744Z,15.60
2023-04-18T17:31:44.772Z,15.50
2023-04-18T17:34:12.874Z,15.40
2023-04-18T17:36:40.725Z,15.40
2023-04-18T17:39:10.028Z,15.30
2023-04-18T17:41:39.413Z,15.30
2023-04-18T17:44:08.849Z,15.20
2023-04-18T17:46:37.369Z,15.10
2023-04-18T17:49:05.428Z,15.00
2023-04-18T17:51:33.945Z,14.90
2023-04-18T17:54:02.109Z,14.90
2023-04-18T17:56:32.169Z,14.80
2023-04-18T17:59:00.436Z,14.70
2023-04-18T18:01:30.927Z,14.70
2023-04-18T18:04:33.318Z,14.60
2023-04-18T18:07:02.081Z,14.60
2023-04-18T18:09:29.931Z,14.60
2023-04-18T18:11:59.368Z,14.60
2023-04-18T18:14:27.996Z,14.50
2023-04-18T18:16:56.465Z,14.50
2023-04-18T18:19:24.471Z,14.50
2023-04-18T18:21:52.724Z,14.40
2023-04-18T18:24:20.623Z,14.40
2023-04-18T18:26:51.489Z,14.30
2023-04-18T18:29:20.689Z,14.30
2023-04-18T18:31:48.754Z,14.30
2023-04-18T18:34:17.561Z,14.20
2023-04-18T18:36:45.430Z,14.20
2023-04-18T18:39:15.078Z,14.10
2023-04-18T18:41:43.830Z,14.10
2023-04-18T18:44:12.711Z,14.10
2023-04-18T18:46:42.655Z,14.00
2023-04-18T18:49:11.946Z,14.00
2023-04-18T18:51:41.455Z,14.00
2023-04-18T18:54:10.115Z,13.90
2023-04-18T18:56:40.107Z,13.90
2023-04-18T18:59:11.717Z,13.90
2023-04-18T19:01:39.836Z,13.80
2023-04-18T19:04:11.476Z,13.80
2023-04-18T19:06:40.293Z,13.70
2023-04-18T19:09:08.591Z,13.70
2023-04-18T19:11:36.876Z,13.70
2023-04-18T19:14:05.179Z,13.70
2023-04-18T19:16:34.760Z,13.70
2023-04-18T19:19:03.318Z,13.70
2023-04-18T19:21:32.154Z,13.70
2023-04-18T19:24:00.753Z,13.60
2023-04-18T19:26:28.820Z,13.70
2023-04-18T19:28:56.805Z,13.60
2023-04-18T19:31:25.101Z,13.60
2023-04-18T19:33:52.988Z,13.60
2023-04-18T19:36:22.957Z,13.60
2023-04-18T19:38:50.837Z,13.60
2023-04-18T19:41:18.886Z,13.50
2023-04-18T19:43:46.892Z,13.50
2023-04-18T19:46:15.113Z,13.50
2023-04-18T19:48:42.970Z,13.50
2023-04-18T19:51:11.418Z,13.40
2023-04-18T19:53:39.841Z,13.40
2023-04-18T19:56:11.330Z,13.40
2023-04-18T19:58:45.340Z,13.40
2023-04-18T20:01:14.841Z,13.40
2023-04-18T20:03:43.747Z,13.30
2023-04-18T20:06:12.172Z,13.30
2023-04-18T20:08:48.005Z,13.30
2023-04-18T20:11:16.414Z,13.30
2023-04-18T20:13:44.547Z,13.30
2023-04-18T20:16:13.053Z,13.30
2023-04-18T20:18:42.043Z,13.30
2023-04-18T20:21:11.478Z,13.30
2023-04-18T20:23:42.859Z,13.30
2023-04-18T20:26:11.053Z,13.30
2023-04-18T20:28:38.973Z,13.30
2023-04-18T20:31:07.619Z,13.20
2023-04-18T20:33:36.637Z,13.20
2023-04-18T20:36:06.945Z,13.20
2023-04-18T20:38:35.023Z,13.10
2023-04-18T20:41:03.280Z,13.00
2023-04-18T20:43:37.264Z,13.00
2023-04-18T20:46:05.491Z,13.00
2023-04-18T20:48:33.527Z,13.00
2023-04-18T20:51:02.040Z,12.90
2023-04-18T20:53:30.300Z,12.90
2023-04-18T20:55:58.991Z,12.90
2023-04-18T20:58:27.097Z,12.80
2023-04-18T21:00:55.294Z,12.70
2023-04-18T21:03:23.514Z,12.70
2023-04-18T21:05:52.098Z,12.60
2023-04-18T21:08:20.212Z,12.60
2023-04-18T21:10:48.327Z,12.60
2023-04-18T21:13:16.980Z,12.60
2023-04-18T21:15:45.292Z,12.70
2023-04-18T21:18:13.660Z,12.70
2023-04-18T21:20:41.827Z,12.60
2023-04-18T21:23:09.815Z,12.60
2023-04-18T21:25:38.021Z,12.60
2023-04-18T21:28:08.666Z,12.60
2023-04-18T21:30:36.781Z,12.60
2023-04-18T21:33:04.816Z,12.50
2023-04-18T21:35:33.046Z,12.50
2023-04-18T21:38:01.134Z,12.50
2023-04-18T21:40:31.197Z,12.50
2023-04-18T21:42:59.766Z,12.50
2023-04-18T21:45:28.895Z,12.40
2023-04-18T21:47:57.017Z,12.40
2023-04-18T21:50:24.961Z,12.40
2023-04-18T21:52:52.886Z,12.30
2023-04-18T21:55:20.875Z,12.30
2023-04-18T21:57:48.679Z,12.30
2023-04-18T22:00:16.985Z,12.20
2023-04-18T22:02:45.112Z,12.20
2023-04-18T22:05:13.219Z,12.10
2023-04-18T22:07:50.598Z,12.10
2023-04-18T22:10:25.900Z,12.10
2023-04-18T22:12:56.870Z,12.10
2023-04-18T22:15:27.587Z,12.00
2023-04-18T22:17:55.576Z,12.10
2023-04-18T22:20:23.583Z,12.00
2023-04-18T22:22:52.016Z,11.90
2023-04-18T22:25:19.761Z,11.90
2023-04-18T22:27:47.858Z,11.90
2023-04-18T22:30:15.905Z,11.90
2023-04-18T22:32:44.067Z,11.90
2023-04-18T22:35:12.085Z,11.80
2023-04-18T22:37:40.209Z,11.80
2023-04-18T22:40:09.559Z,11.80
2023-04-18T22:42:38.754Z,11.80
2023-04-18T22:45:08.448Z,11.70
2023-04-18T22:47:36.509Z,11.70
2023-04-18T22:50:04.613Z,11.70
2023-04-18T22:52:32.736Z,11.70
2023-04-18T22:55:01.685Z,11.60
2023-04-18T22:57:29.635Z,11.60
2023-04-18T22:59:57.997Z,11.50
2023-04-18T23:02:25.935Z,11.40
2023-04-18T23:04:53.988Z,11.40
2023-04-18T23:07:21.920Z,11.40
2023-04-18T23:09:49.693Z,11.40
2023-04-18T23:12:17.563Z,11.30
2023-04-18T23:14:45.475Z,11.30
2023-04-18T23:17:13.235Z,11.30
2023-04-18T23:19:40.922Z,11.30
2023-04-18T23:22:08.884Z,11.20
2023-04-18T23:24:36.780Z,11.20
2023-04-18T23:27:04.582Z,11.20
2023-04-18T23:29:32.387Z,11.20
2023-04-18T23:32:00.222Z,11.20
2023-04-18T23:34:27.922Z,11.20
2023-04-18T23:36:56.087Z,11.20
2023-04-18T23:39:28.265Z,11.20
2023-04-18T23:41:57.145Z,11.20
2023-04-18T23:44:25.983Z,11.20
2023-04-18T23:46:53.928Z,11.20
2023-04-18T23:49:21.854Z,11.20
2023-04-18T23:51:49.811Z,11.20
2023-04-18T23:54:17.542Z,11.20
2023-04-18T23:56:45.612Z,11.20
2023-04-18T23:59:13.426Z,11.20
